createdAt,value
2018-02-18T00:01:06.773Z,51.30
2018-02-18T00:03:41.250Z,52.80
2018-02-18T00:06:15.237Z,54.20
2018-02-18T00:08:53.266Z,54.60
2018-02-18T00:11:28.804Z,56.20
2018-02-18T00:14:09.822Z,58.90
2018-02-18T00:16:43.519Z,59.00
2018-02-18T00:19:18.588Z,59.40
2018-02-18T00:21:53.142Z,59.30
2018-02-18T00:24:26.965Z,59.80
2018-02-18T00:27:00.661Z,60.20
2018-02-18T00:29:35.177Z,62.30
2018-02-18T00:32:09.947Z,62.20
2018-02-18T00:34:43.853Z,63.20
2018-02-18T00:37:21.984Z,64.00
2018-02-18T00:39:56.606Z,64.70
2018-02-18T00:42:31.976Z,65.50
2018-02-18T00:45:07.472Z,66.40
2018-02-18T00:47:42.232Z,66.40
2018-02-18T00:50:17.405Z,65.80
2018-02-18T00:52:51.881Z,66.40
2018-02-18T00:55:26.238Z,66.70
2018-02-18T00:57:59.983Z,66.70
2018-02-18T01:00:36.345Z,67.10
2018-02-18T01:03:10.234Z,67.20
2018-02-18T01:05:45.837Z,67.10
2018-02-18T01:08:19.442Z,67.10
2018-02-18T01:10:53.182Z,67.10
2018-02-18T01:13:27.185Z,67.60
2018-02-18T01:16:00.959Z,68.40
2018-02-18T01:18:34.878Z,69.00
2018-02-18T01:21:08.612Z,69.10
2018-02-18T01:23:42.432Z,70.10
2018-02-18T01:26:16.958Z,71.80
2018-02-18T01:28:50.728Z,71.70
2018-02-18T01:31:25.218Z,73.00
2018-02-18T01:34:00.520Z,74.10
2018-02-18T01:36:34.121Z,74.10
2018-02-18T01:39:08.727Z,74.90
2018-02-18T01:41:42.432Z,75.20
2018-02-18T01:44:16.175Z,75.10
2018-02-18T01:46:49.917Z,75.80
2018-02-18T01:49:24.338Z,76.70
2018-02-18T01:51:58.036Z,76.70
2018-02-18T01:54:31.757Z,77.00
2018-02-18T01:57:06.227Z,77.50
2018-02-18T01:59:40.756Z,78.00
2018-02-18T02:02:14.414Z,78.00
2018-02-18T02:04:48.027Z,78.50
2018-02-18T02:07:21.844Z,79.00
2018-02-18T02:09:55.476Z,79.00
2018-02-18T02:12:29.837Z,79.10
2018-02-18T02:15:04.419Z,79.00
2018-02-18T02:17:38.762Z,79.40
2018-02-18T02:20:12.415Z,79.40
2018-02-18T02:22:46.183Z,79.90
2018-02-18T02:25:19.972Z,80.70
2018-02-18T02:27:54.567Z,81.50
2018-02-18T02:30:28.416Z,81.50
2018-02-18T02:33:04.207Z,82.20
2018-02-18T02:35:38.008Z,82.90
2018-02-18T02:38:12.380Z,82.90
2018-02-18T02:40:46.052Z,83.30
2018-02-18T02:43:19.836Z,83.80
2018-02-18T02:45:54.644Z,83.70
2018-02-18T02:48:28.940Z,83.70
2018-02-18T02:51:02.652Z,84.20
2018-02-18T02:53:36.904Z,84.40
2018-02-18T02:56:10.753Z,84.50
2018-02-18T02:58:44.568Z,84.60
2018-02-18T03:01:19.075Z,84.80
2018-02-18T03:03:52.677Z,85.20
2018-02-18T03:06:26.524Z,85.70
2018-02-18T03:09:00.854Z,84.90
2018-02-18T03:11:34.585Z,84.90
2018-02-18T03:14:08.257Z,84.70
2018-02-18T03:16:43.503Z,85.10
2018-02-18T03:19:17.477Z,85.20
2018-02-18T03:21:51.119Z,85.50
2018-02-18T03:24:27.163Z,85.70
2018-02-18T03:27:01.491Z,86.00
2018-02-18T03:29:35.633Z,86.10
2018-02-18T03:32:09.313Z,86.40
2018-02-18T03:34:43.329Z,86.70
2018-02-18T03:37:17.242Z,86.70
2018-02-18T03:39:51.888Z,86.70
2018-02-18T03:42:25.510Z,87.10
2018-02-18T03:44:59.448Z,87.50
2018-02-18T03:47:33.943Z,87.30
2018-02-18T03:50:07.659Z,87.10
2018-02-18T03:52:42.489Z,87.10
2018-02-18T03:55:16.937Z,87.70
2018-02-18T03:57:50.496Z,87.70
2018-02-18T04:00:24.285Z,88.10
2018-02-18T04:02:57.883Z,88.30
2018-02-18T04:05:31.687Z,88.60
2018-02-18T04:08:06.130Z,89.00
2018-02-18T04:10:39.827Z,88.80
2018-02-18T04:13:13.567Z,88.90
2018-02-18T04:15:48.512Z,89.10
2018-02-18T04:18:22.260Z,89.30
2018-02-18T04:20:56.794Z,89.40
2018-02-18T04:23:33.436Z,89.60
2018-02-18T04:26:09.746Z,90.00
2018-02-18T04:28:44.490Z,90.00
2018-02-18T04:31:18.263Z,90.20
2018-02-18T04:33:52.791Z,90.20
2018-02-18T04:36:26.643Z,90.20
2018-02-18T04:39:01.913Z,90.20
2018-02-18T04:41:35.724Z,90.20
2018-02-18T04:44:09.476Z,90.10
2018-02-18T04:46:45.963Z,90.10
2018-02-18T04:49:19.725Z,90.20
2018-02-18T04:51:53.954Z,90.40
2018-02-18T04:54:34.068Z,90.60
2018-02-18T04:57:09.358Z,90.70
2018-02-18T04:59:46.018Z,90.80
2018-02-18T05:02:21.172Z,90.90
2018-02-18T05:04:54.716Z,90.90
2018-02-18T05:07:29.125Z,90.80
2018-02-18T05:10:04.112Z,90.70
2018-02-18T05:12:37.829Z,90.70
2018-02-18T05:15:11.631Z,90.80
2018-02-18T05:17:45.975Z,90.70
2018-02-18T05:20:19.704Z,90.70
2018-02-18T05:23:00.805Z,90.80
2018-02-18T05:25:35.075Z,90.80
2018-02-18T05:28:11.116Z,90.80
2018-02-18T05:30:45.618Z,90.90
2018-02-18T05:33:19.346Z,90.90
2018-02-18T05:35:53.769Z,90.90
2018-02-18T05:38:28.529Z,91.10
2018-02-18T05:41:05.782Z,91.10
2018-02-18T05:43:40.690Z,91.10
2018-02-18T05:46:15.009Z,91.30
2018-02-18T05:48:48.969Z,91.30
2018-02-18T05:51:23.317Z,91.40
2018-02-18T05:53:57.178Z,91.30
2018-02-18T05:56:31.419Z,91.30
2018-02-18T05:59:11.807Z,91.40
2018-02-18T06:01:46.247Z,91.50
2018-02-18T06:04:20.015Z,91.50
2018-02-18T06:06:53.819Z,91.50
2018-02-18T06:09:27.648Z,91.50
2018-02-18T06:12:02.453Z,91.40
2018-02-18T06:14:36.326Z,91.40
2018-02-18T06:17:10.294Z,91.50
2018-02-18T06:19:44.898Z,91.50
2018-02-18T06:22:18.744Z,91.50
2018-02-18T06:24:52.317Z,91.40
2018-02-18T06:27:25.902Z,91.30
2018-02-18T06:29:59.738Z,91.30
2018-02-18T06:32:33.477Z,91.40
2018-02-18T06:35:07.285Z,91.40
2018-02-18T06:37:41.007Z,91.60
2018-02-18T06:40:14.849Z,91.60
2018-02-18T06:42:48.564Z,91.70
2018-02-18T06:45:22.285Z,91.60
2018-02-18T06:47:56.050Z,91.60
2018-02-18T06:50:29.766Z,91.60
2018-02-18T06:53:03.545Z,92.00
2018-02-18T06:55:37.208Z,91.70
2018-02-18T06:58:11.874Z,91.70
2018-02-18T07:00:45.513Z,91.80
2018-02-18T07:03:19.165Z,91.80
2018-02-18T07:05:53.010Z,91.70
2018-02-18T07:08:26.858Z,91.80
2018-02-18T07:11:01.130Z,91.70
2018-02-18T07:13:34.823Z,91.70
2018-02-18T07:16:09.309Z,91.80
2018-02-18T07:18:43.009Z,91.80
2018-02-18T07:21:16.825Z,91.80
2018-02-18T07:23:50.678Z,91.80
2018-02-18T07:26:24.378Z,91.90
2018-02-18T07:28:59.640Z,91.90
2018-02-18T07:31:33.502Z,91.90
2018-02-18T07:34:07.382Z,91.80
2018-02-18T07:36:41.046Z,91.80
2018-02-18T07:39:14.729Z,91.80
2018-02-18T07:41:49.985Z,91.80
2018-02-18T07:44:24.425Z,91.90
2018-02-18T07:46:58.108Z,91.90
2018-02-18T07:49:31.717Z,91.80
2018-02-18T07:52:05.444Z,91.80
2018-02-18T07:54:39.234Z,91.70
2018-02-18T07:57:13.827Z,91.30
2018-02-18T07:59:48.301Z,91.10
2018-02-18T08:02:22.025Z,91.10
2018-02-18T08:04:55.891Z,90.80
2018-02-18T08:07:29.740Z,90.70
2018-02-18T08:10:03.401Z,90.50
2018-02-18T08:12:37.253Z,89.40
2018-02-18T08:15:11.150Z,88.10
2018-02-18T08:17:45.391Z,87.50
2018-02-18T08:20:18.953Z,86.70
2018-02-18T08:22:53.040Z,85.50
2018-02-18T08:25:26.986Z,84.60
2018-02-18T08:28:00.802Z,83.90
2018-02-18T08:30:34.400Z,81.20
2018-02-18T08:33:08.798Z,77.70
2018-02-18T08:35:42.785Z,77.70
2018-02-18T08:38:16.506Z,76.50
2018-02-18T08:40:50.952Z,75.40
2018-02-18T08:43:24.523Z,74.30
2018-02-18T08:45:58.262Z,74.50
2018-02-18T08:48:32.761Z,72.90
2018-02-18T08:51:06.428Z,72.80
2018-02-18T08:53:40.914Z,70.20
2018-02-18T08:56:16.020Z,68.60
2018-02-18T08:58:49.673Z,68.70
2018-02-18T09:01:26.856Z,66.50
2018-02-18T09:04:02.748Z,65.20
2018-02-18T09:06:36.563Z,64.40
2018-02-18T09:09:10.345Z,62.90
2018-02-18T09:11:44.711Z,62.00
2018-02-18T09:14:18.376Z,62.00
2018-02-18T09:16:52.133Z,60.40
2018-02-18T09:19:26.694Z,58.20
2018-02-18T09:22:03.345Z,55.40
2018-02-18T09:24:38.763Z,51.70
2018-02-18T09:27:16.336Z,51.60
2018-02-18T09:29:51.308Z,51.40
2018-02-18T09:35:08.183Z,50.10
2018-02-18T09:37:52.832Z,48.80
2018-02-18T09:40:34.170Z,48.20
2018-02-18T09:46:00.630Z,46.80
2018-02-18T09:51:18.430Z,46.70
2018-02-18T09:56:40.466Z,46.20
2018-02-18T09:59:21.981Z,45.10
2018-02-18T10:01:56.512Z,44.30
2018-02-18T10:04:30.637Z,42.70
2018-02-18T10:07:05.324Z,42.60
2018-02-18T10:09:39.161Z,42.30
2018-02-18T10:12:12.927Z,41.50
2018-02-18T10:14:46.604Z,42.00
2018-02-18T10:17:22.182Z,40.20
2018-02-18T10:19:55.876Z,40.70
2018-02-18T10:22:29.511Z,39.50
2018-02-18T10:25:06.137Z,38.30
2018-02-18T10:27:41.193Z,37.20
2018-02-18T10:30:15.941Z,36.70
2018-02-18T10:32:51.252Z,36.60
2018-02-18T10:35:24.884Z,35.70
2018-02-18T10:37:58.588Z,36.20
2018-02-18T10:40:32.412Z,35.90
2018-02-18T10:43:06.713Z,35.30
2018-02-18T10:45:42.087Z,33.10
2018-02-18T10:48:15.876Z,33.10
2018-02-18T10:50:49.922Z,33.40
2018-02-18T10:53:24.345Z,32.20
2018-02-18T10:55:59.093Z,30.50
2018-02-18T10:58:32.913Z,30.00
2018-02-18T11:01:07.380Z,29.30
2018-02-18T11:03:42.666Z,28.00
2018-02-18T11:06:18.905Z,28.00
2018-02-18T11:08:54.256Z,28.90
2018-02-18T11:11:29.692Z,27.70
2018-02-18T11:14:03.505Z,25.00
2018-02-18T11:16:39.449Z,26.10
2018-02-18T11:19:14.144Z,25.70
2018-02-18T11:21:48.989Z,24.40
2018-02-18T11:24:24.080Z,24.50
2018-02-18T11:26:58.361Z,22.70
2018-02-18T11:29:33.357Z,23.40
2018-02-18T11:32:07.110Z,23.30
2018-02-18T11:34:42.075Z,22.00
2018-02-18T11:37:16.439Z,22.10
2018-02-18T11:39:50.228Z,21.50
2018-02-18T11:42:27.423Z,20.20
2018-02-18T11:45:02.929Z,20.10
2018-02-18T11:47:37.730Z,21.00
2018-02-18T11:50:11.473Z,20.30
2018-02-18T11:52:46.161Z,19.90
2018-02-18T11:55:22.321Z,19.50
2018-02-18T11:57:58.129Z,18.80
2018-02-18T12:00:35.889Z,18.80
2018-02-18T12:03:10.520Z,18.50
2018-02-18T12:05:47.253Z,18.40
2018-02-18T12:08:21.945Z,18.30
2018-02-18T12:10:58.722Z,18.40
2018-02-18T12:13:35.989Z,18.40
2018-02-18T12:16:11.908Z,18.40
2018-02-18T12:18:45.969Z,18.20
2018-02-18T12:21:26.407Z,17.90
2018-02-18T12:24:03.633Z,17.00
2018-02-18T12:26:38.125Z,17.30
2018-02-18T12:29:11.847Z,16.20
2018-02-18T12:31:45.487Z,16.20
2018-02-18T12:34:20.190Z,16.70
2018-02-18T12:36:55.900Z,17.30
2018-02-18T12:39:30.663Z,17.80
2018-02-18T12:42:07.691Z,16.70
2018-02-18T12:44:43.046Z,17.50
2018-02-18T12:47:20.496Z,16.90
2018-02-18T12:50:03.595Z,16.90
2018-02-18T12:55:32.468Z,16.10
2018-02-18T12:58:10.940Z,16.20
2018-02-18T13:00:45.860Z,16.20
2018-02-18T13:03:22.197Z,16.50
2018-02-18T13:11:32.293Z,14.40
2018-02-18T13:14:09.928Z,14.40
2018-02-18T13:27:57.093Z,6.40
2018-02-18T13:36:33.090Z,2.90
2018-02-18T13:39:09.920Z,1.30
2018-02-18T13:41:44.456Z,1.00
2018-02-18T13:44:18.314Z,1.00
2018-02-18T13:46:54.547Z,1.00
2018-02-18T13:49:30.576Z,1.00
2018-02-18T13:52:06.728Z,1.00
2018-02-18T13:54:41.311Z,1.00
2018-02-18T13:57:15.731Z,1.00
2018-02-18T13:59:50.261Z,1.00
2018-02-18T14:02:24.491Z,1.00
2018-02-18T14:04:59.957Z,1.00
2018-02-18T14:07:35.253Z,1.00
2018-02-18T14:10:11.211Z,1.00
2018-02-18T14:12:46.228Z,1.00
2018-02-18T14:15:19.997Z,1.00
2018-02-18T14:17:53.712Z,1.00
2018-02-18T14:20:34.246Z,1.00
2018-02-18T14:23:08.838Z,1.00
2018-02-18T14:25:42.499Z,1.00
2018-02-18T14:28:17.039Z,1.00
2018-02-18T14:30:52.203Z,1.40
2018-02-18T14:33:31.861Z,2.70
2018-02-18T14:38:57.472Z,1.30
2018-02-18T14:41:43.529Z,1.20
2018-02-18T14:44:30.332Z,1.20
2018-02-18T14:47:18.627Z,2.60
2018-02-18T14:50:04.868Z,2.00
2018-02-18T14:52:50.470Z,2.10
2018-02-18T14:55:36.782Z,1.90
2018-02-18T14:58:10.491Z,4.00
2018-02-18T15:00:44.289Z,4.10
2018-02-18T15:03:19.334Z,6.50
2018-02-18T15:05:53.662Z,6.10
2018-02-18T15:08:27.379Z,4.40
2018-02-18T15:11:01.672Z,3.30
2018-02-18T15:13:37.525Z,3.30
2018-02-18T15:16:14.313Z,3.30
2018-02-18T15:18:51.137Z,3.10
2018-02-18T15:21:41.920Z,4.10
2018-02-18T15:24:16.451Z,3.40
2018-02-18T15:26:50.864Z,5.40
2018-02-18T15:29:24.467Z,5.00
2018-02-18T15:32:00.953Z,6.30
2018-02-18T15:34:35.761Z,7.20
2018-02-18T15:37:09.500Z,7.40
2018-02-18T15:39:44.093Z,9.40
2018-02-18T15:42:19.173Z,9.50
2018-02-18T15:44:54.439Z,10.00
2018-02-18T15:47:30.472Z,13.00
2018-02-18T15:50:04.953Z,11.00
2018-02-18T15:52:39.209Z,11.00
2018-02-18T15:55:13.520Z,11.40
2018-02-18T15:57:48.191Z,11.60
2018-02-18T16:00:22.693Z,13.20
2018-02-18T16:02:58.608Z,12.30
2018-02-18T16:05:34.262Z,13.00
2018-02-18T16:08:08.048Z,13.60
2018-02-18T16:10:41.736Z,13.30
2018-02-18T16:13:15.456Z,13.80
2018-02-18T16:15:49.873Z,14.20
2018-02-18T16:18:23.476Z,14.30
2018-02-18T16:20:57.206Z,14.80
2018-02-18T16:23:30.948Z,15.00
2018-02-18T16:26:05.611Z,16.30
2018-02-18T16:28:40.885Z,16.30
2018-02-18T16:31:14.709Z,16.40
2018-02-18T16:33:48.257Z,16.40
2018-02-18T16:36:22.033Z,16.80
2018-02-18T16:38:55.981Z,17.10
2018-02-18T16:41:29.675Z,17.40
2018-02-18T16:44:04.413Z,17.60
2018-02-18T16:46:38.554Z,17.90
2018-02-18T16:49:13.326Z,18.00
2018-02-18T16:51:48.840Z,18.30
2018-02-18T16:54:23.398Z,19.10
2018-02-18T16:56:57.142Z,19.00
2018-02-18T16:59:34.662Z,19.50
2018-02-18T17:10:13.649Z,19.50
2018-02-18T17:12:52.836Z,20.10
2018-02-18T17:15:37.680Z,20.60
2018-02-18T17:18:15.779Z,21.30
2018-02-18T17:20:56.153Z,21.90
2018-02-18T17:23:35.070Z,22.30
2018-02-18T17:26:11.204Z,23.10
2018-02-18T17:28:54.574Z,23.60
2018-02-18T17:31:35.964Z,24.30
2018-02-18T17:34:11.984Z,24.70
2018-02-18T17:36:47.422Z,25.10
2018-02-18T17:39:28.628Z,25.90
2018-02-18T17:42:06.073Z,26.60
2018-02-18T17:44:46.133Z,26.60
2018-02-18T17:50:19.594Z,27.50
2018-02-18T17:52:54.876Z,27.60
2018-02-18T17:55:44.341Z,28.20
2018-02-18T18:01:18.890Z,28.20
2018-02-18T18:03:54.711Z,28.20
2018-02-18T18:06:32.316Z,28.10
2018-02-18T18:09:08.546Z,28.90
2018-02-18T18:11:43.896Z,28.80
2018-02-18T18:14:18.373Z,28.90
2018-02-18T18:16:51.963Z,29.10
2018-02-18T18:19:26.601Z,29.20
2018-02-18T18:22:01.761Z,29.90
2018-02-18T18:24:36.625Z,30.00
2018-02-18T18:27:11.429Z,30.00
2018-02-18T18:29:45.919Z,30.00
2018-02-18T18:32:19.742Z,29.50
2018-02-18T18:34:55.209Z,30.30
2018-02-18T18:37:28.971Z,30.30
2018-02-18T18:40:03.410Z,30.00
2018-02-18T18:42:37.030Z,30.00
2018-02-18T18:45:13.037Z,30.60
2018-02-18T18:47:48.353Z,31.00
2018-02-18T18:50:26.432Z,31.90
2018-02-18T18:53:08.191Z,31.90
2018-02-18T18:55:43.197Z,32.30
2018-02-18T18:58:22.517Z,33.40
2018-02-18T19:00:56.914Z,34.10
2018-02-18T19:03:33.989Z,34.40
2018-02-18T19:06:08.902Z,35.90
2018-02-18T19:08:49.381Z,35.90
2018-02-18T19:11:26.322Z,37.30
2018-02-18T19:13:59.923Z,38.30
2018-02-18T19:16:35.209Z,40.80
2018-02-18T19:21:53.019Z,41.70
2018-02-18T19:24:32.240Z,42.00
2018-02-18T19:27:12.034Z,43.00
2018-02-18T19:29:46.622Z,43.90
2018-02-18T19:32:21.873Z,43.10
2018-02-18T19:37:45.503Z,42.00
2018-02-18T19:40:29.841Z,41.50
2018-02-18T19:43:05.484Z,41.00
2018-02-18T19:45:40.249Z,41.00
2018-02-18T19:48:19.888Z,41.10
2018-02-18T19:50:56.253Z,40.90
2018-02-18T19:53:34.560Z,41.60
2018-02-18T19:56:11.511Z,41.30
2018-02-18T19:58:46.076Z,40.70
2018-02-18T20:01:20.953Z,40.00
2018-02-18T20:03:56.438Z,39.50
2018-02-18T20:06:34.866Z,39.10
2018-02-18T20:09:11.392Z,38.90
2018-02-18T20:11:49.998Z,38.20
2018-02-18T20:14:23.842Z,38.20
2018-02-18T20:17:00.728Z,37.80
2018-02-18T20:19:35.468Z,37.60
2018-02-18T20:22:11.102Z,37.60
2018-02-18T20:24:53.694Z,37.80
2018-02-18T20:27:32.138Z,37.10
2018-02-18T20:30:16.060Z,36.50
2018-02-18T20:32:50.616Z,35.90
2018-02-18T20:35:25.702Z,35.90
2018-02-18T20:38:03.634Z,35.90
2018-02-18T20:43:28.667Z,35.90
2018-02-18T20:46:10.808Z,35.90
2018-02-18T20:48:47.145Z,35.90
2018-02-18T20:51:22.645Z,36.00
2018-02-18T20:54:01.208Z,35.90
2018-02-18T20:56:38.128Z,35.90
2018-02-18T20:59:15.551Z,36.90
2018-02-18T21:01:50.834Z,36.90
2018-02-18T21:04:29.147Z,37.40
2018-02-18T21:07:05.069Z,37.90
2018-02-18T21:09:38.897Z,37.70
2018-02-18T21:12:14.290Z,38.00
2018-02-18T21:14:49.588Z,38.60
2018-02-18T21:17:24.562Z,39.40
2018-02-18T21:19:58.821Z,40.10
2018-02-18T21:25:16.689Z,40.50
2018-02-18T21:27:52.290Z,40.50
2018-02-18T21:30:29.911Z,40.70
2018-02-18T21:33:08.316Z,40.70
2018-02-18T21:35:46.344Z,40.90
2018-02-18T21:38:21.770Z,41.20
2018-02-18T21:40:58.822Z,41.50
2018-02-18T21:43:54.284Z,41.80
2018-02-18T21:46:32.449Z,42.30
2018-02-18T21:49:06.302Z,42.20
2018-02-18T21:57:29.778Z,42.00
2018-02-18T22:00:09.321Z,41.80
2018-02-18T22:05:48.678Z,42.50
2018-02-18T22:08:29.262Z,42.50
2018-02-18T22:13:56.202Z,43.00
2018-02-18T22:16:34.425Z,43.00
2018-02-18T22:22:05.170Z,42.80
2018-02-18T22:24:38.867Z,42.90
2018-02-18T22:27:17.187Z,43.20
2018-02-18T22:30:00.605Z,43.50
2018-02-18T22:32:38.868Z,43.40
2018-02-18T22:38:14.745Z,44.00
2018-02-18T22:40:50.311Z,44.40
2018-02-18T22:43:24.956Z,44.00
2018-02-18T22:45:58.519Z,43.60
2018-02-18T22:48:35.862Z,43.30
2018-02-18T22:51:12.758Z,43.40
2018-02-18T22:53:46.552Z,43.20
2018-02-18T22:56:20.319Z,42.90
2018-02-18T22:58:54.072Z,43.10
2018-02-18T23:01:28.768Z,43.00
2018-02-18T23:04:02.478Z,42.90
2018-02-18T23:09:15.859Z,42.60
2018-02-18T23:11:49.431Z,42.80
2018-02-18T23:14:24.656Z,42.90
2018-02-18T23:16:59.114Z,43.20
2018-02-18T23:19:32.738Z,43.10
2018-02-18T23:22:08.688Z,43.50
2018-02-18T23:24:43.174Z,43.90
2018-02-18T23:27:17.785Z,44.10
2018-02-18T23:29:51.442Z,44.10
2018-02-18T23:32:25.683Z,44.10
2018-02-18T23:35:01.918Z,45.30
2018-02-18T23:37:36.062Z,45.30
2018-02-18T23:40:11.006Z,45.80
2018-02-18T23:42:45.847Z,46.20
2018-02-18T23:45:21.106Z,47.00
2018-02-18T23:47:56.273Z,46.90
2018-02-18T23:50:32.494Z,47.00
2018-02-18T23:53:07.615Z,47.30
2018-02-18T23:58:22.507Z,47.80
